Time;durP1;ratioP1;P1;durP2;ratioP2;P2;SDS_P1;SDS_P2;PMS_P1;PMS_P2;Temp;Humidity;BMP_temperature;BMP_pressure;BME280_temperature;BME280_humidity;BME280_pressure;Samples;Min_cycle;Max_cycle;Signal;HPM_P1;HPM_P2
2022/05/25 00:01:49;;;;;;;;;;;;;;;9.90;40.05;99049.81;5010826;28;20044;-78
2022/05/25 00:04:15;;;;;;;8.65;6.10;;;;;;;9.68;41.74;99041.41;5011777;28;19936;-79
2022/05/25 00:06:41;;;;;;;7.15;5.13;;;;;;;9.75;41.36;99055.13;5013361;28;20161;-78
2022/05/25 00:09:06;;;;;;;;;;;;;;;10.01;40.27;99054.88;4991731;28;20070;-77
2022/05/25 00:11:32;;;;;;;5.50;3.70;;;;;;;9.93;41.19;99058.38;4993763;28;19917;-77
2022/05/25 00:13:58;;;;;;;4.57;3.08;;;;;;;9.89;41.43;99048.06;5012939;28;20068;-78
2022/05/25 00:16:23;;;;;;;;;;;;;;;10.03;40.44;99058.28;5029960;28;20046;-78
2022/05/25 00:21:33;;;;;;;3.70;2.17;;;;;;;9.78;41.59;99057.72;5014268;28;20058;-78
2022/05/25 00:23:59;;;;;;;;;;;;;;;9.86;40.95;99066.28;5013574;28;20038;-78
2022/05/25 00:26:24;;;;;;;5.80;2.10;;;;;;;9.58;42.57;99069.13;5014112;28;19925;-77
2022/05/25 00:28:50;;;;;;;;;;;;;;;9.65;41.33;99072.50;5029545;28;20022;-77
2022/05/25 00:31:16;;;;;;;3.42;1.77;;;;;;;9.45;42.93;99069.25;5012837;28;19917;-77
2022/05/25 00:33:41;;;;;;;;;;;;;;;9.60;41.65;99072.56;5014366;28;20420;-77
2022/05/25 00:36:07;;;;;;;3.15;1.85;;;;;;;9.45;42.57;99059.75;5013615;28;19932;-78
2022/05/25 00:38:33;;;;;;;;;;;;;;;9.63;41.55;99072.53;5013575;28;20116;-76
2022/05/25 00:40:58;;;;;;;3.00;1.88;;;;;;;9.48;42.64;99069.22;5012732;28;19921;-78
2022/05/25 00:43:24;;;;;;;;;;;;;;;9.51;42.53;99079.56;5029409;28;20034;-77
2022/05/25 00:45:51;;;;;;;4.40;2.08;;;;;;;9.32;43.71;99077.13;5014079;28;20024;-78
2022/05/25 00:48:23;;;;;;;3.60;2.40;;;;;;;9.19;44.00;99072.91;4995151;28;20084;-78
2022/05/25 00:53:59;;;;;;;3.90;2.40;;;;;;;9.21;44.43;99085.84;4935228;29;20051;-77
2022/05/25 00:56:25;;;;;;;4.55;2.53;;;;;;;9.16;44.13;99094.53;4934192;29;20091;-77
2022/05/25 00:58:58;;;;;;;5.38;2.28;;;;;;;9.27;44.24;99086.66;4956547;28;20053;-77
2022/05/25 01:01:24;;;;;;;3.20;2.33;;;;;;;9.09;44.72;99079.91;5014793;28;20060;-76
2022/05/25 01:03:50;;;;;;;4.60;2.67;;;;;;;8.97;45.02;99079.13;5012578;28;20046;-78
2022/05/25 01:06:25;;;;;;;;;;;;;;;9.11;45.03;99093.66;4996694;28;20091;-77
2022/05/25 01:09:10;;;;;;;8.20;4.35;;;;;;;9.15;44.31;99087.59;5012288;28;19971;-76
2022/05/25 01:12:10;;;;;;;10.05;4.00;;;;;;;9.27;43.58;99083.22;5003757;28;20077;-78
2022/05/25 01:15:01;;;;;;;8.38;4.85;;;;;;;9.36;44.04;99090.91;4999828;28;20091;-76
2022/05/25 01:17:42;;;;;;;8.85;4.90;;;;;;;9.22;44.56;99088.44;5013035;28;20046;-77
2022/05/25 01:20:16;;;;;;;9.68;5.60;;;;;;;9.15;44.71;99091.94;5013559;28;20042;-77
2022/05/25 01:23:12;;;;;;;8.07;5.43;;;;;;;9.19;44.21;99095.34;5013055;28;20042;-78
2022/05/25 01:26:01;;;;;;;11.55;6.85;;;;;;;9.09;43.95;99094.56;5011814;28;20418;-77
2022/05/25 01:29:03;;;;;;;10.82;6.88;;;;;;;9.10;44.76;99099.72;5011640;28;20409;-78
2022/05/25 01:32:09;;;;;;;9.70;6.57;;;;;;;9.14;44.34;99097.97;4964053;28;20049;-76
2022/05/25 01:35:01;;;;;;;11.20;6.28;;;;;;;9.21;44.07;99106.53;5012757;28;20045;-77
2022/05/25 01:37:34;;;;;;;5.47;3.78;;;;;;;9.20;44.51;99104.81;4999657;28;20482;-76
2022/05/25 01:40:14;;;;;;;6.03;3.03;;;;;;;9.23;44.29;99104.81;5013088;28;20049;-77
2022/05/25 01:42:53;;;;;;;3.63;2.33;;;;;;;9.35;44.11;99102.13;4993717;28;20121;-78
2022/05/25 01:45:19;;;;;;;6.00;2.30;;;;;;;9.30;44.31;99093.53;5011640;28;20583;-78
2022/05/25 01:47:46;;;;;;;9.07;2.45;;;;;;;9.25;44.43;99093.56;5012099;28;20060;-77
2022/05/25 01:50:36;;;;;;;5.32;2.30;;;;;;;9.42;43.73;99098.63;4996277;28;20093;-77
2022/05/25 01:53:02;;;;;;;4.55;2.30;;;;;;;9.24;44.41;99088.41;5012193;28;20183;-77
2022/05/25 01:55:54;;;;;;;;;;;;;;;9.35;44.35;99096.97;5012651;28;20054;-78
2022/05/25 01:58:20;;;;;;;4.57;2.13;;;;;;;9.12;44.96;99104.91;5010896;28;19918;-78
2022/05/25 02:00:46;;;;;;;;;;;;;;;9.14;45.06;99095.38;5018957;28;20109;-77
2022/05/25 02:06:21;;;;;;;6.75;2.17;;;;;;;9.05;45.22;99093.72;4999774;28;20046;-77
2022/05/25 02:08:53;;;;;;;5.32;2.70;;;;;;;9.19;44.70;99103.13;4992149;28;20072;-78
2022/05/25 02:11:34;;;;;;;8.98;5.90;;;;;;;9.26;44.07;99105.66;5005085;28;20140;-78
2022/05/25 02:14:31;;;;;;;12.57;8.55;;;;;;;9.37;44.02;99108.16;5005110;28;20046;-78
2022/05/25 02:17:02;;;;;;;13.70;8.20;;;;;;;9.38;44.08;99109.88;5008908;28;20046;-78
2022/05/25 02:19:47;;;;;;;15.57;9.85;;;;;;;9.31;44.69;99123.75;5013434;28;20038;-78
2022/05/25 02:22:17;;;;;;;11.85;7.88;;;;;;;9.18;45.33;99122.09;5013261;28;20042;-77
2022/05/25 02:24:48;;;;;;;14.85;7.82;;;;;;;9.06;45.45;99118.72;4995065;28;20572;-77
2022/05/25 02:27:49;;;;;;;12.90;7.63;;;;;;;8.96;45.50;99126.56;5011452;28;20504;-78
2022/05/25 02:30:19;;;;;;;11.20;6.97;;;;;;;8.90;45.38;99127.47;4991059;28;20129;-78
2022/05/25 02:32:48;;;;;;;10.10;5.80;;;;;;;8.84;45.32;99128.38;5011435;28;20120;-79
2022/05/25 02:35:14;;;;;;;14.85;6.32;;;;;;;8.76;45.52;99126.69;5011682;28;20038;-77
2022/05/25 02:37:40;;;;;;;8.80;5.70;;;;;;;8.72;45.66;99122.41;5011072;28;20067;-77
2022/05/25 02:40:06;;;;;;;;;;;;;;;8.80;45.85;99123.22;5011636;28;20053;-78
2022/05/25 02:42:32;;;;;;;8.60;5.03;;;;;;;8.56;46.18;99122.44;5016913;28;20295;-78
2022/05/25 02:44:58;;;;;;;11.25;5.63;;;;;;;8.53;46.19;99124.22;5015774;28;20069;-78
2022/05/25 02:47:24;;;;;;;6.95;5.13;;;;;;;8.58;46.35;99123.31;4998729;28;20505;-78
2022/05/25 02:49:49;;;;;;;10.73;4.93;;;;;;;8.51;46.44;99116.44;5014610;28;20057;-79
2022/05/25 02:52:15;;;;;;;6.20;4.50;;;;;;;8.55;46.48;99130.22;4995088;28;20374;-78
2022/05/25 02:54:41;;;;;;;7.30;3.75;;;;;;;8.40;46.92;99121.66;5012097;28;20459;-78
2022/05/25 02:57:07;;;;;;;5.00;2.97;;;;;;;8.34;47.06;99128.56;5015840;28;20038;-78
2022/05/25 02:59:33;;;;;;;5.43;3.50;;;;;;;8.29;47.72;99127.69;4982326;28;20065;-78
2022/05/25 03:02:01;;;;;;;5.03;2.95;;;;;;;8.26;47.49;99123.41;5008605;28;20045;-79
2022/05/25 03:04:27;;;;;;;5.30;2.80;;;;;;;8.17;48.10;99127.75;5014260;28;20096;-79
2022/05/25 03:06:53;;;;;;;6.53;3.17;;;;;;;8.13;48.20;99127.75;5002858;28;21205;-79
2022/05/25 03:09:18;;;;;;;3.90;2.33;;;;;;;8.20;48.03;99133.78;5014456;28;20065;-78
2022/05/25 03:11:45;;;;;;;8.93;2.60;;;;;;;8.08;48.25;99121.75;4978599;28;20041;-78
2022/05/25 03:14:10;;;;;;;6.70;2.85;;;;;;;8.19;47.71;99136.34;4996857;28;20061;-77
2022/05/25 03:16:36;;;;;;;5.07;2.70;;;;;;;8.13;47.85;99116.56;5014684;28;20129;-78
2022/05/25 03:19:02;;;;;;;7.60;2.65;;;;;;;8.27;48.09;99139.78;4995002;28;20033;-77
2022/05/25 03:21:27;;;;;;;;;;;;;;;8.35;47.82;99138.03;4998731;28;20041;-78
2022/05/25 03:23:53;;;;;;;5.82;2.40;;;;;;;8.35;46.95;99122.53;5015957;28;20012;-78
2022/05/25 03:26:19;;;;;;;;;;;;;;;8.55;46.47;99140.56;5015425;28;20034;-78
2022/05/25 03:28:44;;;;;;;3.72;1.83;;;;;;;8.38;46.33;99127.69;5014704;28;19961;-78
2022/05/25 03:31:10;;;;;;;3.72;1.95;;;;;;;8.36;46.51;99135.47;5012052;28;20046;-78
2022/05/25 03:33:36;;;;;;;3.47;2.10;;;;;;;8.30;46.83;99145.81;5003860;28;20042;-78
2022/05/25 03:36:02;;;;;;;;;;;;;;;8.46;46.06;99140.59;5014369;28;20045;-77
2022/05/25 03:38:28;;;;;;;3.38;1.63;;;;;;;8.42;46.59;99124.25;5010398;28;20363;-79
2022/05/25 03:40:54;;;;;;;6.60;2.10;;;;;;;8.65;46.13;99145.69;4997819;28;20038;-78
2022/05/25 03:43:20;;;;;;;3.42;1.77;;;;;;;8.65;46.13;99140.50;5008292;28;20472;-78
2022/05/25 03:45:46;;;;;;;;;;;;;;;8.80;45.67;99146.50;5007341;28;20057;-77
2022/05/25 03:48:12;;;;;;;5.35;1.83;;;;;;;8.63;46.55;99150.00;4997572;28;20256;-78
2022/05/25 03:50:41;;;;;;;4.28;1.98;;;;;;;8.58;46.64;99150.91;5014986;28;20128;-78
2022/05/25 03:53:08;;;;;;;4.93;2.03;;;;;;;8.67;46.20;99152.59;5012728;28;20065;-78
2022/05/25 03:55:34;;;;;;;9.70;2.28;;;;;;;8.79;45.44;99149.91;5013447;28;20041;-77
2022/05/25 03:58:01;;;;;;;4.40;1.80;;;;;;;8.78;45.52;99145.63;5013952;28;20546;-78
2022/05/25 04:00:27;;;;;;;2.50;1.63;;;;;;;8.93;45.01;99150.72;5016571;28;20041;-78
2022/05/25 04:02:53;;;;;;;3.33;1.60;;;;;;;8.94;45.05;99149.00;5024692;28;20484;-77
2022/05/25 04:05:18;;;;;;;2.33;1.30;;;;;;;8.98;44.93;99161.91;4996779;28;20068;-80
2022/05/25 04:07:44;;;;;;;;;;;;;;;9.08;44.90;99160.97;5014380;28;20034;-78
2022/05/25 04:10:13;;;;;;;3.03;1.70;;;;;;;8.99;45.01;99161.03;5018723;28;20379;-78
2022/05/25 04:12:40;;;;;;;3.00;1.40;;;;;;;9.07;44.97;99163.56;5014135;28;20473;-78
2022/05/25 04:15:06;;;;;;;3.67;1.50;;;;;;;9.20;45.13;99157.44;5014301;28;20038;-78
2022/05/25 04:17:32;;;;;;;2.50;1.40;;;;;;;9.36;44.32;99165.97;5013337;28;20460;-78
2022/05/25 04:19:58;;;;;;;6.30;1.60;;;;;;;9.35;44.27;99170.31;5029355;28;20041;-78
2022/05/25 04:22:24;;;;;;;4.82;1.45;;;;;;;9.34;44.40;99165.97;5014411;28;20035;-78
2022/05/25 04:24:51;;;;;;;2.95;1.40;;;;;;;9.38;44.16;99167.66;4996948;28;20072;-78
2022/05/25 04:27:17;;;;;;;1.92;1.20;;;;;;;9.57;43.39;99175.28;5012901;28;20033;-77
2022/05/25 04:29:42;;;;;;;3.00;1.50;;;;;;;9.49;43.60;99153.81;4996323;28;20066;-78
2022/05/25 04:32:08;;;;;;;;;;;;;;;9.69;43.29;99170.03;4997349;28;20065;-78
2022/05/25 04:34:34;;;;;;;5.18;1.30;;;;;;;9.69;43.36;99175.22;5012844;28;19917;-80
2022/05/25 04:37:48;;;;;;;4.50;2.53;;;;;;;9.70;43.07;99173.47;5014443;28;20030;-78
2022/05/25 04:39:45;;;;;;;2.70;1.30;;;;;;;9.73;43.09;99168.28;5013606;28;20050;-76
2022/05/25 04:42:10;;;;;;;;;;;;;;;9.87;42.90;99171.59;5009647;28;20057;-78
2022/05/25 04:44:36;;;;;;;4.38;1.55;;;;;;;9.88;42.73;99170.72;5010131;28;20376;-77
2022/05/25 04:47:02;;;;;;;4.65;1.48;;;;;;;10.01;41.59;99164.56;4996376;28;20058;-78
2022/05/25 04:49:28;;;;;;;;;;;;;;;10.34;41.93;99175.47;5014136;28;20038;-78
2022/05/25 04:51:54;;;;;;;3.38;1.42;;;;;;;10.32;40.25;99166.88;5013046;28;19913;-79
2022/05/25 04:54:19;;;;;;;;;;;;;;;10.41;40.21;99178.00;4997191;28;20038;-77
2022/05/25 04:59:36;;;;;;;2.15;1.23;;;;;;;10.61;39.57;99176.91;5000416;28;20048;-82
2022/05/25 05:02:01;;;;;;;;;;;;;;;10.67;38.83;99179.41;4996783;28;20038;-77
2022/05/25 05:04:27;;;;;;;2.00;1.08;;;;;;;10.47;39.08;99173.63;5016508;28;20031;-78
2022/05/25 05:06:53;;;;;;;6.85;1.48;;;;;;;10.29;39.86;99159.97;5000435;28;20060;-77
2022/05/25 05:09:19;;;;;;;;;;;;;;;10.48;39.79;99186.56;5016679;28;20037;-79
2022/05/25 05:11:45;;;;;;;3.58;1.10;;;;;;;10.38;39.30;99154.69;5033104;28;19916;-78
2022/05/25 05:14:13;;;;;;;1.70;0.98;;;;;;;10.50;39.87;99177.03;4999820;28;20574;-78
2022/05/25 05:16:40;;;;;;;3.00;1.20;;;;;;;10.56;39.63;99163.13;5032589;28;20037;-77
2022/05/25 05:19:18;;;;;;;1.17;0.90;;;;;;;10.63;39.52;99165.66;5004217;28;20061;-77
2022/05/25 05:21:59;;;;;;;2.47;1.38;;;;;;;10.75;39.08;99176.72;5018072;28;20132;-78
2022/05/25 05:24:25;;;;;;;;;;;;;;;11.22;39.00;99183.00;5033607;28;20079;-76
2022/05/25 05:26:51;;;;;;;3.72;1.30;;;;;;;11.33;37.24;99161.22;5033461;28;19913;-78
2022/05/25 05:29:16;;;;;;;;;;;;;;;11.70;37.30;99186.63;4983775;28;20411;-77
2022/05/25 05:31:42;;;;;;;1.98;1.17;;;;;;;11.55;37.09;99169.53;5032479;28;19919;-78
2022/05/25 05:34:08;;;;;;;;;;;;;;;11.57;36.99;99178.16;5032817;28;20038;-80
2022/05/25 05:36:43;;;;;;;3.28;1.35;;;;;;;11.36;37.75;99171.56;5016042;28;19967;-78
2022/05/25 05:39:09;;;;;;;3.10;1.30;;;;;;;11.45;37.79;99178.31;5033090;28;20041;-78
2022/05/25 05:41:39;;;;;;;2.40;1.38;;;;;;;11.45;38.16;99179.22;4990532;28;20030;-79
2022/05/25 05:44:05;;;;;;;4.50;1.27;;;;;;;11.62;37.82;99170.28;5010803;28;20409;-80
2022/05/25 05:46:30;;;;;;;;;;;;;;;11.74;37.80;99177.88;5010084;28;20046;-78
2022/05/25 05:48:56;;;;;;;3.50;1.13;;;;;;;11.85;37.36;99169.94;5013481;28;19917;-78
2022/05/25 05:51:22;;;;;;;4.40;1.50;;;;;;;11.79;37.31;99147.47;4996343;28;20432;-78
2022/05/25 05:53:48;;;;;;;;;;;;;;;11.93;37.17;99163.72;4996616;28;20085;-78
2022/05/25 05:56:14;;;;;;;4.55;1.25;;;;;;;12.02;36.66;99160.09;4997478;28;20415;-77
2022/05/25 05:58:39;;;;;;;;;;;;;;;12.32;36.70;99171.66;4998215;28;20041;-77
2022/05/25 06:01:05;;;;;;;2.65;1.15;;;;;;;12.28;36.60;99166.56;5012453;28;19913;-79
2022/05/25 06:03:30;;;;;;;;;;;;;;;12.50;36.06;99167.84;4979920;28;20086;-78
2022/05/25 06:05:56;;;;;;;2.45;1.20;;;;;;;12.46;35.80;99155.78;4981068;28;19949;-81
2022/05/25 06:08:23;;;;;;;;;;;;;;;12.57;35.86;99168.59;4997772;28;20073;-83
2022/05/25 06:10:49;;;;;;;1.77;1.10;;;;;;;12.62;35.78;99172.81;5014658;28;20292;-78
2022/05/25 06:13:15;;;;;;;6.55;1.30;;;;;;;12.80;34.84;99168.13;4996337;28;20063;-76
2022/05/25 06:21:14;;;;;;;2.42;1.13;;;;;;;12.45;36.35;99160.13;5002928;28;20037;-80
2022/05/25 06:23:39;;;;;;;;;;;;;;;12.64;36.34;99160.63;5001719;28;20393;-79
2022/05/25 06:26:05;;;;;;;1.38;0.90;;;;;;;12.84;35.49;99156.78;4999885;28;20039;-79
2022/05/25 06:28:30;;;;;;;;;;;;;;;13.15;35.45;99162.19;5018216;28;20084;-79
2022/05/25 06:30:56;;;;;;;2.53;1.33;;;;;;;13.27;34.71;99156.69;5000264;28;19924;-81
2022/05/25 06:33:21;;;;;;;;;;;;;;;13.56;34.70;99163.84;5001776;28;20064;-80
2022/05/25 06:35:47;;;;;;;3.25;1.30;;;;;;;13.52;34.26;99161.34;5017858;28;20025;-79
2022/05/25 06:38:13;;;;;;;;;;;;;;;13.65;34.62;99167.94;4999741;28;20065;-79
2022/05/25 06:40:39;;;;;;;3.42;1.10;;;;;;;13.56;33.95;99142.13;4999604;28;20380;-79
2022/05/25 06:43:04;;;;;;;;;;;;;;;13.73;34.22;99163.41;4999773;28;20072;-79
2022/05/25 06:45:30;;;;;;;2.60;1.25;;;;;;;13.62;33.82;99161.09;5016685;28;19932;-79
2022/05/25 06:47:56;;;;;;;;;;;;;;;13.63;33.39;99165.41;5016230;28;20045;-79
2022/05/25 06:50:21;;;;;;;1.45;0.82;;;;;;;13.17;34.07;99153.41;5028571;28;19922;-79
2022/05/25 06:52:47;;;;;;;;;;;;;;;13.19;34.50;99167.28;4987365;28;20069;-79
2022/05/25 06:55:13;;;;;;;3.08;1.50;;;;;;;12.96;34.73;99159.09;5016513;28;19925;-79
2022/05/25 06:57:40;;;;;;;;;;;;;;;13.10;35.03;99171.81;5000423;28;20068;-79
2022/05/25 07:00:07;;;;;;;3.67;1.20;;;;;;;13.44;34.45;99159.78;5017970;28;19917;-80
2022/05/25 07:02:32;;;;;;;1.98;1.20;;;;;;;13.73;34.17;99164.25;5030975;28;20033;-79
2022/05/25 07:04:58;;;;;;;;;;;;;;;13.97;33.45;99170.63;4997421;28;20053;-78
2022/05/25 07:07:24;;;;;;;3.13;1.23;;;;;;;14.04;33.22;99166.09;5014544;28;20292;-79
2022/05/25 07:09:50;;;;;;;3.22;1.20;;;;;;;14.16;33.24;99164.94;5016503;28;20049;-80
2022/05/25 07:12:17;;;;;;;2.80;1.50;;;;;;;14.20;33.04;99166.53;5007104;28;20562;-78
2022/05/25 07:14:43;;;;;;;3.38;1.13;;;;;;;14.11;33.17;99162.44;4999418;28;20113;-78
2022/05/25 07:17:08;;;;;;;;;;;;;;;13.98;33.46;99158.44;5017007;28;20084;-80
2022/05/25 07:19:34;;;;;;;2.08;1.13;;;;;;;13.92;33.26;99154.22;5019211;28;19917;-80
2022/05/25 07:22:00;;;;;;;6.03;1.00;;;;;;;13.96;33.21;99158.47;4980399;28;20034;-80
2022/05/25 07:24:26;;;;;;;;;;;;;;;14.15;33.49;99164.06;5000329;28;20045;-78
2022/05/25 07:26:52;;;;;;;2.38;1.20;;;;;;;14.18;33.08;99157.91;5016383;28;19914;-79
2022/05/25 07:29:17;;;;;;;;;;;;;;;14.50;32.89;99167.50;5014825;28;20045;-78
2022/05/25 07:31:50;;;;;;;1.60;1.10;;;;;;;14.59;32.63;99150.72;5012952;28;19914;-80
2022/05/25 07:34:26;;;;;;;5.15;1.55;;;;;;;14.73;32.05;99164.25;4964871;28;20038;-79
2022/05/25 07:37:04;;;;;;;2.40;1.27;;;;;;;14.75;32.29;99154.59;4985488;28;20073;-78
2022/05/25 07:39:34;;;;;;;1.73;1.20;;;;;;;14.87;31.97;99142.94;4985454;28;20038;-82
2022/05/25 07:42:01;;;;;;;7.93;1.33;;;;;;;15.12;31.73;99143.03;4955200;28;20074;-79
2022/05/25 07:44:31;;;;;;;1.80;1.17;;;;;;;15.49;31.16;99153.22;5010479;28;20076;-79
2022/05/25 07:46:57;;;;;;;3.53;1.40;;;;;;;15.84;30.81;99157.31;5015504;28;20137;-79
2022/05/25 07:49:23;;;;;;;;;;;;;;;16.16;30.88;99171.06;5016763;28;20076;-79
2022/05/25 07:51:51;;;;;;;2.28;1.17;;;;;;;16.31;30.29;99152.22;4996999;28;20012;-80
2022/05/25 07:54:17;;;;;;;1.98;1.20;;;;;;;16.52;29.61;99163.66;4986743;28;20041;-77
2022/05/25 07:56:42;;;;;;;4.30;2.45;;;;;;;16.44;29.36;99160.47;4998481;28;20136;-78
2022/05/25 07:59:10;;;;;;;2.95;1.55;;;;;;;16.35;29.73;99145.94;4998584;28;20057;-80
2022/05/25 08:07:11;;;;;;;2.88;1.50;;;;;;;15.93;30.31;99148.28;5014532;28;20421;-81
2022/05/25 08:09:38;;;;;;;3.40;1.42;;;;;;;16.07;30.33;99145.22;5005616;28;20125;-82
2022/05/25 08:12:05;;;;;;;4.10;1.25;;;;;;;16.44;30.56;99168.31;4977113;28;20493;-78
2022/05/25 08:14:31;;;;;;;5.97;1.20;;;;;;;16.77;29.87;99172.38;4982559;28;20030;-80
2022/05/25 08:16:57;;;;;;;1.60;1.10;;;;;;;16.90;29.22;99172.75;4988065;28;20046;-79
2022/05/25 08:19:23;;;;;;;2.53;1.10;;;;;;;16.53;29.47;99170.59;5011312;28;20396;-79
2022/05/25 08:21:50;;;;;;;1.88;1.20;;;;;;;16.43;29.71;99169.22;4998113;28;20451;-80
2022/05/25 08:24:16;;;;;;;2.42;1.30;;;;;;;16.18;30.54;99175.34;5001071;28;20069;-80
2022/05/25 08:26:42;;;;;;;1.60;1.10;;;;;;;16.73;30.10;99172.53;5014782;28;20479;-79
2022/05/25 08:29:08;;;;;;;3.75;1.08;;;;;;;17.13;29.11;99160.53;5015542;28;20034;-80
2022/05/25 08:31:33;;;;;;;2.55;1.23;;;;;;;17.54;28.95;99174.63;4981043;28;20042;-79
2022/05/25 08:33:59;;;;;;;1.80;1.00;;;;;;;18.05;28.46;99165.56;5005195;28;20087;-79
2022/05/25 08:36:25;;;;;;;2.78;1.10;;;;;;;18.34;27.75;99168.72;5014986;28;20040;-79
2022/05/25 08:38:52;;;;;;;2.17;1.23;;;;;;;18.43;27.18;99165.69;5015529;28;20036;-80
2022/05/25 08:41:20;;;;;;;2.08;1.25;;;;;;;18.51;26.91;99150.44;5028866;28;20420;-78
2022/05/25 08:43:47;;;;;;;1.92;0.93;;;;;;;18.60;26.95;99164.91;4981650;28;20041;-79
2022/05/25 08:46:20;;;;;;;1.80;1.10;;;;;;;18.38;27.57;99149.28;4996523;28;20081;-82
2022/05/25 08:48:46;;;;;;;3.30;1.10;;;;;;;18.60;27.17;99171.06;4990681;28;20046;-79
2022/05/25 08:51:16;;;;;;;1.30;0.90;;;;;;;18.69;27.16;99160.16;4992875;28;20038;-80
2022/05/25 08:53:42;;;;;;;4.18;1.40;;;;;;;18.52;27.24;99157.41;4980689;28;20404;-82
2022/05/25 08:56:15;;;;;;;4.07;1.65;;;;;;;18.12;27.51;99176.66;5006105;28;20034;-80
2022/05/25 08:58:53;;;;;;;4.15;1.30;;;;;;;17.81;27.98;99184.97;5028366;28;20041;-80
2022/05/25 09:01:47;;;;;;;2.33;1.08;;;;;;;17.59;28.18;99179.69;5006755;28;20037;-79
2022/05/25 09:04:19;;;;;;;1.77;1.10;;;;;;;17.34;28.93;99169.34;4986858;28;20054;-80
2022/05/25 09:07:08;;;;;;;2.72;1.02;;;;;;;17.75;28.56;99163.31;5008153;28;20034;-80
2022/05/25 09:09:39;;;;;;;3.40;1.40;;;;;;;18.23;28.16;99161.28;4981582;28;20111;-80
2022/05/25 09:12:47;;;;;;;3.05;1.50;;;;;;;18.86;27.76;99166.41;5000391;28;20030;-83
2022/05/25 09:15:12;;;;;;;;;;;;;;;19.46;27.45;99172.34;4981517;28;20054;-80
2022/05/25 09:17:47;;;;;;;4.50;1.40;;;;;;;19.67;26.47;99170.50;4978784;28;20292;-80
2022/05/25 09:20:15;;;;;;;3.60;1.13;;;;;;;19.63;25.93;99154.00;5011566;28;20054;-82
2022/05/25 09:22:41;;;;;;;2.42;1.45;;;;;;;19.60;25.82;99148.88;4981155;28;20045;-80
2022/05/25 09:25:08;;;;;;;2.58;1.70;;;;;;;19.82;25.79;99153.94;4993962;28;20070;-79
2022/05/25 09:27:47;;;;;;;5.75;1.50;;;;;;;19.69;25.71;99153.69;5013163;28;20030;-80
2022/05/25 09:30:13;;;;;;;3.22;1.20;;;;;;;19.86;25.67;99154.63;4996126;28;20049;-80
2022/05/25 09:32:55;;;;;;;5.25;1.50;;;;;;;20.10;25.67;99153.38;4978098;28;20034;-80
2022/05/25 09:35:50;;;;;;;2.28;1.20;;;;;;;20.43;25.50;99160.47;4962106;28;20039;-80
2022/05/25 09:38:32;;;;;;;1.85;1.25;;;;;;;20.22;25.45;99163.28;4997520;28;20145;-82
2022/05/25 09:41:03;;;;;;;2.45;1.35;;;;;;;19.75;25.39;99160.44;4986592;28;20081;-82
2022/05/25 09:43:29;;;;;;;2.00;1.30;;;;;;;19.60;25.75;99169.91;4986496;28;20135;-80
2022/05/25 09:45:55;;;;;;;2.97;1.20;;;;;;;19.61;25.77;99165.50;4997494;28;20058;-80
2022/05/25 09:48:24;;;;;;;2.72;1.20;;;;;;;19.37;26.04;99159.63;5011816;28;20041;-79
2022/05/25 09:50:54;;;;;;;3.53;1.30;;;;;;;19.03;26.71;99153.34;5019158;28;20097;-78
2022/05/25 09:53:22;;;;;;;3.90;1.40;;;;;;;18.83;27.00;99141.16;4998013;28;20133;-82
2022/05/25 09:55:54;;;;;;;4.00;1.50;;;;;;;18.82;27.42;99159.59;4980633;28;20037;-78
2022/05/25 09:58:30;;;;;;;4.38;1.50;;;;;;;19.13;27.25;99169.53;5000119;28;20536;-79
2022/05/25 10:00:58;;;;;;;2.80;1.48;;;;;;;19.25;27.12;99158.47;5018629;28;20041;-80
2022/05/25 10:03:43;;;;;;;3.22;1.48;;;;;;;19.85;26.46;99150.31;4981642;28;20489;-79
2022/05/25 10:06:32;;;;;;;4.50;1.50;;;;;;;19.95;26.46;99155.03;4998191;28;20125;-78
2022/05/25 10:09:18;;;;;;;4.35;1.50;;;;;;;20.00;26.50;99153.00;4999914;28;20049;-78
2022/05/25 10:11:49;;;;;;;3.33;1.57;;;;;;;19.90;26.23;99150.91;4997402;28;20042;-79
2022/05/25 10:14:15;;;;;;;4.15;1.50;;;;;;;19.91;26.23;99157.88;4997231;28;20042;-82
2022/05/25 10:16:41;;;;;;;3.33;1.42;;;;;;;19.75;26.50;99142.88;5013821;28;20084;-79
2022/05/25 10:19:14;;;;;;;2.78;1.40;;;;;;;19.77;26.61;99127.84;4996418;28;20523;-80
2022/05/25 10:21:45;;;;;;;5.35;1.70;;;;;;;20.01;26.43;99133.63;5020126;28;20084;-79
2022/05/25 10:24:21;;;;;;;3.97;1.63;;;;;;;19.67;26.72;99113.44;5000538;28;20098;-79
2022/05/25 10:26:55;;;;;;;5.10;1.73;;;;;;;20.24;26.34;99136.88;5017922;28;20046;-79
2022/05/25 10:38:12;;;;;;;7.57;3.38;;;;;;;20.86;24.97;99116.91;5016796;28;20041;-79
2022/05/25 10:40:42;;;;;;;6.65;1.90;;;;;;;20.84;25.18;99144.25;5004842;28;20046;-80
2022/05/25 10:43:08;;;;;;;4.47;1.90;;;;;;;20.71;25.37;99144.94;5016574;28;20096;-79
2022/05/25 10:45:38;;;;;;;4.40;2.00;;;;;;;20.58;25.15;99128.09;5000516;28;20038;-83
2022/05/25 10:48:13;;;;;;;7.20;1.52;;;;;;;20.87;25.13;99137.03;5004124;28;20104;-83
2022/05/25 10:51:00;;;;;;;5.22;1.60;;;;;;;21.00;25.26;99129.31;4990401;28;20034;-80
2022/05/25 10:53:36;;;;;;;2.80;1.50;;;;;;;20.81;25.28;99130.31;5000696;28;20516;-84
2022/05/25 10:56:29;;;;;;;3.45;1.35;;;;;;;21.40;25.37;99138.53;4990439;28;20389;-82
2022/05/25 10:59:13;;;;;;;3.65;1.33;;;;;;;22.10;24.38;99140.63;4990972;28;20052;-83
2022/05/25 11:02:08;;;;;;;2.90;1.23;;;;;;;22.00;23.99;99106.84;5036840;28;20048;-82
2022/05/25 11:05:11;;;;;;;4.05;1.50;;;;;;;22.21;24.08;99138.22;5005321;28;20520;-82
2022/05/25 11:07:40;;;;;;;4.45;1.27;;;;;;;21.69;24.09;99121.00;5025233;28;20515;-82
2022/05/25 11:10:28;;;;;;;3.05;1.20;;;;;;;21.54;24.41;99145.66;5007930;28;20064;-85
2022/05/25 11:13:28;;;;;;;4.05;1.33;;;;;;;21.53;24.11;99128.09;5010746;28;20056;-81
2022/05/25 11:16:19;;;;;;;2.10;1.17;;;;;;;20.93;24.95;99134.06;5010470;28;20072;-83
2022/05/25 11:18:57;;;;;;;4.40;1.42;;;;;;;20.13;25.27;99129.53;5007620;28;20038;-83
2022/05/25 11:21:34;;;;;;;2.78;1.20;;;;;;;19.46;26.77;99136.34;4991563;28;20034;-83
2022/05/25 11:24:13;;;;;;;3.85;1.10;;;;;;;19.21;27.20;99125.34;4985071;28;20569;-81
2022/05/25 11:27:01;;;;;;;7.18;1.20;;;;;;;19.13;27.55;99122.22;5010184;28;20037;-81
2022/05/25 11:29:49;;;;;;;4.03;1.42;;;;;;;18.90;28.04;99134.66;4988326;28;20058;-83
2022/05/25 11:32:37;;;;;;;1.95;1.30;;;;;;;18.93;27.94;99128.44;5019815;28;20400;-82
2022/05/25 11:35:11;;;;;;;4.78;1.40;;;;;;;18.73;28.14;99138.06;5004718;28;20093;-81
2022/05/25 11:37:50;;;;;;;2.63;1.40;;;;;;;18.36;28.63;99111.72;5035974;28;20052;-82
2022/05/25 11:40:18;;;;;;;2.42;1.30;;;;;;;18.70;28.58;99124.22;5021629;28;20115;-82
2022/05/25 11:43:05;;;;;;;3.10;1.65;;;;;;;18.25;28.87;99105.19;5023661;28;20092;-81
2022/05/25 11:45:50;;;;;;;3.45;1.58;;;;;;;17.91;29.74;99128.53;5020745;28;20065;-84
2022/05/25 11:48:53;;;;;;;2.45;1.33;;;;;;;17.94;29.83;99131.06;5030290;28;20045;-80
2022/05/25 11:51:48;;;;;;;4.10;1.50;;;;;;;17.84;29.64;99127.13;5014020;28;20523;-80
2022/05/25 11:54:26;;;;;;;3.08;1.25;;;;;;;17.35;30.57;99134.34;4991111;28;20057;-80
2022/05/25 11:56:57;;;;;;;4.03;1.60;;;;;;;17.22;30.95;99124.34;5017529;28;20049;-84
2022/05/25 11:59:29;;;;;;;2.45;1.40;;;;;;;17.37;30.76;99127.28;5019687;28;20029;-80
2022/05/25 12:02:16;;;;;;;3.90;1.30;;;;;;;17.45;30.85;99130.41;5032894;28;20543;-80
2022/05/25 12:04:53;;;;;;;4.38;1.20;;;;;;;17.41;30.79;99113.09;5037144;28;20053;-80
2022/05/25 12:07:22;;;;;;;3.35;1.23;;;;;;;17.64;30.38;99114.78;5002971;28;20076;-82
2022/05/25 12:10:03;;;;;;;5.38;1.30;;;;;;;18.00;30.17;99118.50;5019631;28;20059;-83
2022/05/25 12:12:37;;;;;;;3.83;1.27;;;;;;;18.11;29.73;99104.09;5004384;28;20046;-82
2022/05/25 12:15:09;;;;;;;7.35;1.30;;;;;;;18.08;30.28;99117.34;4999946;28;20042;-80
2022/05/25 12:17:41;;;;;;;2.20;1.23;;;;;;;17.87;30.53;99111.22;5004029;28;20046;-81
2022/05/25 12:20:11;;;;;;;3.25;1.10;;;;;;;17.57;30.99;99114.19;5018725;28;20041;-82
2022/05/25 12:22:37;;;;;;;4.15;1.20;;;;;;;17.44;31.05;99113.84;4988760;28;20053;-81
2022/05/25 12:25:10;;;;;;;3.42;1.30;;;;;;;17.55;30.92;99116.03;4983290;28;20113;-81
2022/05/25 12:27:42;;;;;;;2.63;1.27;;;;;;;17.66;30.48;99090.22;4998484;28;20049;-80
2022/05/25 12:30:20;;;;;;;3.58;1.30;;;;;;;17.74;30.83;99118.78;4988202;28;20492;-81
2022/05/25 12:32:46;;;;;;;2.03;1.20;;;;;;;17.73;30.78;99117.94;5023032;28;20033;-81
2022/05/25 12:35:12;;;;;;;2.85;1.10;;;;;;;17.66;30.49;99102.47;4996332;28;20027;-82
2022/05/25 12:37:41;;;;;;;2.78;1.30;;;;;;;17.91;30.46;99124.16;5003735;28;20057;-81